CheckWX is a tool to help pilots better visualize weather data.  It is not intended as a substitute for an official pre-flight weather briefing.

18:49:48 UTC

KCPR METAR
Casper / Natrona County International Airport
Casper, Wyoming, USA
Current

57 mins ago

KCPR 211753Z VRB03KT 10SM OVC007 M07/M08 A3013 RMK AO2 SLP251 T10721083 11056 21083 53006
Observed
Nov-21 @ 17:53 UTC
Wind
  • Variable at 3 KTS
Visibility
10 SM
Flight Rules
IFR
Cloud Levels
  • Overcast at 700' AGL
Temperature
-7°C / 19°F
Dewpoint
-8°C / 18°F
Humidity
93%
Altimeter
30.13" Hg
Pressure
1020.32 hPa
Previous

2 hours ago

KCPR 211653Z 01003KT 6SM BR OVC005 M07/M08 A3013 RMK AO2 CIG 004V008 SLP254 T10721083
Observed
Nov-21 @ 16:53 UTC
Wind
  • 010° at 3 KTS
Visibility
6 SM
Flight Rules
IFR
Conditions
Mist
Cloud Levels
  • Overcast at 500' AGL
Temperature
-7°C / 19°F
Dewpoint
-8°C / 18°F
Humidity
93%
Altimeter
30.13" Hg
Pressure
1020.32 hPa
Previous

3 hours ago

KCPR 211601Z 02005KT 6SM BR OVC003 M08/M08 A3010 RMK AO2 T10781083
Observed
Nov-21 @ 16:01 UTC
Wind
  • 020° at 5 KTS
Visibility
6 SM
Flight Rules
LIFR
Conditions
Mist
Cloud Levels
  • Overcast at 300' AGL
Temperature
-8°C / 18°F
Dewpoint
-8°C / 18°F
Humidity
100%
Altimeter
30.1" Hg
Pressure
1019.32 hPa